sensor_id;sensor_type;location;lat;lon;timestamp;P1;durP1;ratioP1;P2;durP2;ratioP2
55815;SDS011;41744;52.404;16.942;2023-08-24T00:00:25;7.85;;;3.35;;
55815;SDS011;41744;52.404;16.942;2023-08-24T00:02:51;5.63;;;3.63;;
55815;SDS011;41744;52.404;16.942;2023-08-24T00:05:17;8.15;;;4.13;;
55815;SDS011;41744;52.404;16.942;2023-08-24T00:07:43;6.95;;;3.53;;
55815;SDS011;41744;52.404;16.942;2023-08-24T00:10:09;7.50;;;4.25;;
55815;SDS011;41744;52.404;16.942;2023-08-24T00:15:39;9.43;;;3.72;;
55815;SDS011;41744;52.404;16.942;2023-08-24T00:18:05;8.30;;;4.25;;
55815;SDS011;41744;52.404;16.942;2023-08-24T00:20:31;5.50;;;3.50;;
55815;SDS011;41744;52.404;16.942;2023-08-24T00:26:01;11.35;;;3.53;;
55815;SDS011;41744;52.404;16.942;2023-08-24T00:28:27;6.03;;;3.90;;
55815;SDS011;41744;52.404;16.942;2023-08-24T00:30:53;6.70;;;3.58;;
55815;SDS011;41744;52.404;16.942;2023-08-24T00:33:19;7.07;;;3.78;;
55815;SDS011;41744;52.404;16.942;2023-08-24T00:35:45;5.05;;;3.33;;
55815;SDS011;41744;52.404;16.942;2023-08-24T00:38:11;5.53;;;3.30;;
55815;SDS011;41744;52.404;16.942;2023-08-24T00:40:37;3.97;;;3.05;;
55815;SDS011;41744;52.404;16.942;2023-08-24T00:46:07;8.38;;;3.70;;
55815;SDS011;41744;52.404;16.942;2023-08-24T00:48:33;6.35;;;3.55;;
55815;SDS011;41744;52.404;16.942;2023-08-24T00:51:00;9.07;;;3.22;;
55815;SDS011;41744;52.404;16.942;2023-08-24T00:53:26;6.97;;;3.17;;
55815;SDS011;41744;52.404;16.942;2023-08-24T00:55:52;7.93;;;3.20;;
55815;SDS011;41744;52.404;16.942;2023-08-24T00:58:19;7.40;;;3.55;;
55815;SDS011;41744;52.404;16.942;2023-08-24T01:00:45;9.93;;;3.67;;
55815;SDS011;41744;52.404;16.942;2023-08-24T01:03:11;5.18;;;3.35;;
55815;SDS011;41744;52.404;16.942;2023-08-24T01:05:37;4.93;;;3.33;;
55815;SDS011;41744;52.404;16.942;2023-08-24T01:08:03;6.93;;;3.33;;
55815;SDS011;41744;52.404;16.942;2023-08-24T01:10:33;5.35;;;3.08;;
55815;SDS011;41744;52.404;16.942;2023-08-24T01:16:07;8.35;;;3.10;;
55815;SDS011;41744;52.404;16.942;2023-08-24T01:18:34;7.72;;;3.30;;
55815;SDS011;41744;52.404;16.942;2023-08-24T01:21:01;8.93;;;3.30;;
55815;SDS011;41744;52.404;16.942;2023-08-24T01:23:36;8.05;;;3.38;;
55815;SDS011;41744;52.404;16.942;2023-08-24T01:26:14;5.13;;;3.40;;
55815;SDS011;41744;52.404;16.942;2023-08-24T01:28:43;5.63;;;3.45;;
55815;SDS011;41744;52.404;16.942;2023-08-24T01:31:09;7.57;;;3.45;;
55815;SDS011;41744;52.404;16.942;2023-08-24T01:33:35;6.85;;;3.60;;
55815;SDS011;41744;52.404;16.942;2023-08-24T01:36:01;6.65;;;3.40;;
55815;SDS011;41744;52.404;16.942;2023-08-24T01:38:27;6.00;;;2.92;;
55815;SDS011;41744;52.404;16.942;2023-08-24T01:40:59;5.13;;;3.40;;
55815;SDS011;41744;52.404;16.942;2023-08-24T01:46:31;9.02;;;3.63;;
55815;SDS011;41744;52.404;16.942;2023-08-24T01:48:58;5.35;;;3.30;;
55815;SDS011;41744;52.404;16.942;2023-08-24T01:51:25;8.43;;;3.10;;
55815;SDS011;41744;52.404;16.942;2023-08-24T01:53:52;6.38;;;3.33;;
55815;SDS011;41744;52.404;16.942;2023-08-24T01:56:18;4.85;;;3.20;;
55815;SDS011;41744;52.404;16.942;2023-08-24T01:58:44;7.45;;;3.70;;
55815;SDS011;41744;52.404;16.942;2023-08-24T02:01:10;4.32;;;3.30;;
55815;SDS011;41744;52.404;16.942;2023-08-24T02:06:41;5.10;;;3.33;;
55815;SDS011;41744;52.404;16.942;2023-08-24T02:09:07;5.75;;;3.50;;
55815;SDS011;41744;52.404;16.942;2023-08-24T02:11:33;5.70;;;3.63;;
55815;SDS011;41744;52.404;16.942;2023-08-24T02:13:59;4.95;;;3.05;;
55815;SDS011;41744;52.404;16.942;2023-08-24T02:16:25;5.63;;;3.70;;
55815;SDS011;41744;52.404;16.942;2023-08-24T02:18:51;5.82;;;3.55;;
55815;SDS011;41744;52.404;16.942;2023-08-24T02:21:17;7.90;;;4.13;;
55815;SDS011;41744;52.404;16.942;2023-08-24T02:23:43;7.03;;;3.72;;
55815;SDS011;41744;52.404;16.942;2023-08-24T02:26:09;6.07;;;4.30;;
55815;SDS011;41744;52.404;16.942;2023-08-24T02:28:36;8.85;;;4.00;;
55815;SDS011;41744;52.404;16.942;2023-08-24T02:31:02;6.28;;;4.00;;
55815;SDS011;41744;52.404;16.942;2023-08-24T02:36:32;5.95;;;3.97;;
55815;SDS011;41744;52.404;16.942;2023-08-24T02:38:59;6.50;;;4.03;;
55815;SDS011;41744;52.404;16.942;2023-08-24T02:41:25;5.75;;;3.58;;
55815;SDS011;41744;52.404;16.942;2023-08-24T02:43:52;8.18;;;3.90;;
55815;SDS011;41744;52.404;16.942;2023-08-24T02:46:18;5.50;;;4.07;;
55815;SDS011;41744;52.404;16.942;2023-08-24T02:48:44;7.10;;;4.00;;
55815;SDS011;41744;52.404;16.942;2023-08-24T02:51:10;5.57;;;3.88;;
55815;SDS011;41744;52.404;16.942;2023-08-24T02:53:36;7.72;;;4.10;;
55815;SDS011;41744;52.404;16.942;2023-08-24T02:56:02;6.93;;;4.20;;
55815;SDS011;41744;52.404;16.942;2023-08-24T02:58:29;7.07;;;4.20;;
55815;SDS011;41744;52.404;16.942;2023-08-24T03:00:55;6.75;;;4.07;;
55815;SDS011;41744;52.404;16.942;2023-08-24T03:06:25;6.45;;;3.78;;
55815;SDS011;41744;52.404;16.942;2023-08-24T03:08:51;9.50;;;4.95;;
55815;SDS011;41744;52.404;16.942;2023-08-24T03:11:17;6.47;;;4.20;;
55815;SDS011;41744;52.404;16.942;2023-08-24T03:13:43;6.80;;;4.00;;
55815;SDS011;41744;52.404;16.942;2023-08-24T03:16:09;12.52;;;4.38;;
55815;SDS011;41744;52.404;16.942;2023-08-24T03:18:35;6.97;;;3.97;;
55815;SDS011;41744;52.404;16.942;2023-08-24T03:21:01;7.75;;;4.07;;
55815;SDS011;41744;52.404;16.942;2023-08-24T03:23:27;7.15;;;4.35;;
55815;SDS011;41744;52.404;16.942;2023-08-24T03:25:54;8.02;;;3.92;;
55815;SDS011;41744;52.404;16.942;2023-08-24T03:28:21;8.32;;;4.30;;
55815;SDS011;41744;52.404;16.942;2023-08-24T03:30:49;8.55;;;4.20;;
55815;SDS011;41744;52.404;16.942;2023-08-24T03:36:19;7.55;;;4.20;;
55815;SDS011;41744;52.404;16.942;2023-08-24T03:38:45;8.38;;;3.97;;
55815;SDS011;41744;52.404;16.942;2023-08-24T03:41:11;6.10;;;4.10;;
55815;SDS011;41744;52.404;16.942;2023-08-24T03:43:37;9.88;;;4.05;;
55815;SDS011;41744;52.404;16.942;2023-08-24T03:46:03;6.57;;;4.20;;
55815;SDS011;41744;52.404;16.942;2023-08-24T03:48:30;7.32;;;4.60;;
55815;SDS011;41744;52.404;16.942;2023-08-24T03:50:56;6.82;;;4.13;;
55815;SDS011;41744;52.404;16.942;2023-08-24T03:53:23;6.85;;;3.95;;
55815;SDS011;41744;52.404;16.942;2023-08-24T03:55:51;8.88;;;4.47;;
55815;SDS011;41744;52.404;16.942;2023-08-24T03:58:17;7.97;;;4.28;;
55815;SDS011;41744;52.404;16.942;2023-08-24T04:00:43;6.63;;;4.60;;
55815;SDS011;41744;52.404;16.942;2023-08-24T04:06:13;8.88;;;4.35;;
55815;SDS011;41744;52.404;16.942;2023-08-24T04:08:39;7.28;;;4.05;;
55815;SDS011;41744;52.404;16.942;2023-08-24T04:11:05;10.70;;;4.30;;
55815;SDS011;41744;52.404;16.942;2023-08-24T04:13:31;6.63;;;4.28;;
55815;SDS011;41744;52.404;16.942;2023-08-24T04:15:57;7.88;;;4.25;;
55815;SDS011;41744;52.404;16.942;2023-08-24T04:18:23;8.70;;;4.82;;
55815;SDS011;41744;52.404;16.942;2023-08-24T04:20:51;12.18;;;4.75;;
55815;SDS011;41744;52.404;16.942;2023-08-24T04:23:17;8.82;;;4.10;;
55815;SDS011;41744;52.404;16.942;2023-08-24T04:25:43;8.38;;;4.65;;
55815;SDS011;41744;52.404;16.942;2023-08-24T04:28:09;11.48;;;4.65;;
55815;SDS011;41744;52.404;16.942;2023-08-24T04:30:35;8.48;;;4.53;;
55815;SDS011;41744;52.404;16.942;2023-08-24T04:36:05;11.07;;;5.25;;
55815;SDS011;41744;52.404;16.942;2023-08-24T04:38:31;7.90;;;4.40;;
55815;SDS011;41744;52.404;16.942;2023-08-24T04:40:57;9.73;;;4.20;;
55815;SDS011;41744;52.404;16.942;2023-08-24T04:43:23;6.43;;;4.55;;
55815;SDS011;41744;52.404;16.942;2023-08-24T04:45:50;8.52;;;4.88;;
55815;SDS011;41744;52.404;16.942;2023-08-24T04:48:19;6.28;;;4.20;;
55815;SDS011;41744;52.404;16.942;2023-08-24T04:50:46;6.38;;;4.35;;
55815;SDS011;41744;52.404;16.942;2023-08-24T04:56:16;8.50;;;4.05;;
55815;SDS011;41744;52.404;16.942;2023-08-24T04:58:56;8.23;;;4.55;;
55815;SDS011;41744;52.404;16.942;2023-08-24T05:01:24;9.75;;;4.32;;
55815;SDS011;41744;52.404;16.942;2023-08-24T05:03:51;8.45;;;5.13;;
55815;SDS011;41744;52.404;16.942;2023-08-24T05:06:17;11.98;;;5.00;;
55815;SDS011;41744;52.404;16.942;2023-08-24T05:08:43;7.40;;;4.47;;
55815;SDS011;41744;52.404;16.942;2023-08-24T05:11:13;9.63;;;4.35;;
55815;SDS011;41744;52.404;16.942;2023-08-24T05:16:42;6.95;;;4.50;;
55815;SDS011;41744;52.404;16.942;2023-08-24T05:19:08;9.77;;;4.88;;
55815;SDS011;41744;52.404;16.942;2023-08-24T05:21:34;8.20;;;4.97;;
55815;SDS011;41744;52.404;16.942;2023-08-24T05:24:00;8.13;;;4.93;;
55815;SDS011;41744;52.404;16.942;2023-08-24T05:26:26;9.70;;;4.88;;
55815;SDS011;41744;52.404;16.942;2023-08-24T05:28:53;10.32;;;5.32;;
55815;SDS011;41744;52.404;16.942;2023-08-24T05:31:19;22.83;;;13.40;;
55815;SDS011;41744;52.404;16.942;2023-08-24T05:36:48;10.82;;;5.43;;
55815;SDS011;41744;52.404;16.942;2023-08-24T05:39:14;8.40;;;5.30;;
55815;SDS011;41744;52.404;16.942;2023-08-24T05:41:40;10.90;;;6.13;;
55815;SDS011;41744;52.404;16.942;2023-08-24T05:47:19;11.85;;;5.65;;
55815;SDS011;41744;52.404;16.942;2023-08-24T05:49:45;8.30;;;5.20;;
55815;SDS011;41744;52.404;16.942;2023-08-24T05:52:11;8.73;;;5.40;;
55815;SDS011;41744;52.404;16.942;2023-08-24T05:54:37;10.73;;;5.82;;
55815;SDS011;41744;52.404;16.942;2023-08-24T05:57:04;12.60;;;5.93;;
55815;SDS011;41744;52.404;16.942;2023-08-24T05:59:30;9.95;;;5.18;;
55815;SDS011;41744;52.404;16.942;2023-08-24T06:01:56;10.40;;;5.43;;
55815;SDS011;41744;52.404;16.942;2023-08-24T06:04:22;11.45;;;5.13;;
55815;SDS011;41744;52.404;16.942;2023-08-24T06:06:48;11.95;;;5.15;;
55815;SDS011;41744;52.404;16.942;2023-08-24T06:09:14;8.70;;;4.50;;
55815;SDS011;41744;52.404;16.942;2023-08-24T06:11:40;12.52;;;5.30;;
55815;SDS011;41744;52.404;16.942;2023-08-24T06:14:06;11.02;;;5.35;;
55815;SDS011;41744;52.404;16.942;2023-08-24T06:16:33;14.80;;;6.05;;
55815;SDS011;41744;52.404;16.942;2023-08-24T06:18:58;9.68;;;4.80;;
55815;SDS011;41744;52.404;16.942;2023-08-24T06:21:24;8.25;;;4.45;;
55815;SDS011;41744;52.404;16.942;2023-08-24T06:23:51;11.20;;;6.45;;
55815;SDS011;41744;52.404;16.942;2023-08-24T06:26:17;14.07;;;6.97;;
55815;SDS011;41744;52.404;16.942;2023-08-24T06:28:43;13.65;;;5.07;;
55815;SDS011;41744;52.404;16.942;2023-08-24T06:31:09;13.40;;;5.85;;
55815;SDS011;41744;52.404;16.942;2023-08-24T06:36:39;22.45;;;8.63;;
55815;SDS011;41744;52.404;16.942;2023-08-24T06:39:05;15.48;;;6.05;;
55815;SDS011;41744;52.404;16.942;2023-08-24T06:41:34;21.80;;;8.02;;
55815;SDS011;41744;52.404;16.942;2023-08-24T06:44:00;14.23;;;5.43;;
55815;SDS011;41744;52.404;16.942;2023-08-24T06:46:27;12.40;;;5.07;;
55815;SDS011;41744;52.404;16.942;2023-08-24T06:48:53;17.83;;;4.72;;
55815;SDS011;41744;52.404;16.942;2023-08-24T06:51:19;13.68;;;4.57;;
55815;SDS011;41744;52.404;16.942;2023-08-24T06:56:48;11.52;;;4.15;;
55815;SDS011;41744;52.404;16.942;2023-08-24T06:59:14;11.48;;;5.05;;
55815;SDS011;41744;52.404;16.942;2023-08-24T07:01:40;16.48;;;5.03;;
55815;SDS011;41744;52.404;16.942;2023-08-24T07:07:10;11.77;;;6.05;;
55815;SDS011;41744;52.404;16.942;2023-08-24T07:09:36;18.20;;;5.97;;
55815;SDS011;41744;52.404;16.942;2023-08-24T07:15:05;12.98;;;4.07;;
55815;SDS011;41744;52.404;16.942;2023-08-24T07:17:31;11.20;;;4.10;;
55815;SDS011;41744;52.404;16.942;2023-08-24T07:19:57;12.40;;;3.65;;
55815;SDS011;41744;52.404;16.942;2023-08-24T07:22:24;11.32;;;3.25;;
55815;SDS011;41744;52.404;16.942;2023-08-24T07:24:51;15.00;;;5.00;;
55815;SDS011;41744;52.404;16.942;2023-08-24T07:27:18;11.73;;;4.10;;
55815;SDS011;41744;52.404;16.942;2023-08-24T07:29:44;13.45;;;4.05;;
55815;SDS011;41744;52.404;16.942;2023-08-24T07:35:13;6.15;;;2.45;;
55815;SDS011;41744;52.404;16.942;2023-08-24T07:37:39;10.02;;;2.80;;
55815;SDS011;41744;52.404;16.942;2023-08-24T07:40:05;10.05;;;2.30;;
55815;SDS011;41744;52.404;16.942;2023-08-24T07:45:36;5.80;;;1.85;;
55815;SDS011;41744;52.404;16.942;2023-08-24T07:48:02;6.25;;;2.03;;
55815;SDS011;41744;52.404;16.942;2023-08-24T07:50:28;5.07;;;2.03;;
55815;SDS011;41744;52.404;16.942;2023-08-24T07:52:55;8.55;;;2.13;;
55815;SDS011;41744;52.404;16.942;2023-08-24T07:55:21;6.25;;;1.80;;
55815;SDS011;41744;52.404;16.942;2023-08-24T07:57:47;8.32;;;2.17;;
55815;SDS011;41744;52.404;16.942;2023-08-24T08:00:14;6.68;;;1.90;;
55815;SDS011;41744;52.404;16.942;2023-08-24T08:05:43;6.90;;;2.13;;
55815;SDS011;41744;52.404;16.942;2023-08-24T08:08:09;6.32;;;1.65;;
55815;SDS011;41744;52.404;16.942;2023-08-24T08:10:35;12.85;;;3.22;;
55815;SDS011;41744;52.404;16.942;2023-08-24T08:13:01;7.72;;;3.83;;
55815;SDS011;41744;52.404;16.942;2023-08-24T08:15:27;6.75;;;2.00;;
55815;SDS011;41744;52.404;16.942;2023-08-24T08:17:53;10.20;;;1.98;;
55815;SDS011;41744;52.404;16.942;2023-08-24T08:20:19;9.20;;;2.03;;
55815;SDS011;41744;52.404;16.942;2023-08-24T08:22:45;9.02;;;2.10;;
55815;SDS011;41744;52.404;16.942;2023-08-24T08:25:11;6.50;;;4.20;;
55815;SDS011;41744;52.404;16.942;2023-08-24T08:27:37;5.38;;;2.13;;
55815;SDS011;41744;52.404;16.942;2023-08-24T08:30:04;5.28;;;2.28;;
55815;SDS011;41744;52.404;16.942;2023-08-24T08:35:34;6.57;;;1.90;;
55815;SDS011;41744;52.404;16.942;2023-08-24T08:38:00;4.93;;;2.00;;
55815;SDS011;41744;52.404;16.942;2023-08-24T08:40:26;5.65;;;2.20;;
55815;SDS011;41744;52.404;16.942;2023-08-24T08:42:58;4.10;;;1.80;;
55815;SDS011;41744;52.404;16.942;2023-08-24T08:45:24;3.40;;;1.70;;
55815;SDS011;41744;52.404;16.942;2023-08-24T08:47:59;6.00;;;1.80;;
55815;SDS011;41744;52.404;16.942;2023-08-24T08:50:26;5.18;;;1.85;;
55815;SDS011;41744;52.404;16.942;2023-08-24T08:55:55;3.40;;;1.80;;
55815;SDS011;41744;52.404;16.942;2023-08-24T08:58:23;3.70;;;1.65;;
55815;SDS011;41744;52.404;16.942;2023-08-24T09:00:50;14.95;;;2.53;;
55815;SDS011;41744;52.404;16.942;2023-08-24T09:03:17;5.05;;;1.70;;
55815;SDS011;41744;52.404;16.942;2023-08-24T09:05:44;4.30;;;1.60;;
55815;SDS011;41744;52.404;16.942;2023-08-24T09:08:13;7.07;;;1.70;;
55815;SDS011;41744;52.404;16.942;2023-08-24T09:10:39;7.32;;;1.50;;
55815;SDS011;41744;52.404;16.942;2023-08-24T09:16:08;3.22;;;2.00;;
55815;SDS011;41744;52.404;16.942;2023-08-24T09:18:41;4.00;;;1.50;;
55815;SDS011;41744;52.404;16.942;2023-08-24T09:21:11;4.00;;;1.70;;
55815;SDS011;41744;52.404;16.942;2023-08-24T09:23:42;5.78;;;1.67;;
55815;SDS011;41744;52.404;16.942;2023-08-24T09:26:10;5.90;;;1.58;;
55815;SDS011;41744;52.404;16.942;2023-08-24T09:28:37;5.10;;;1.67;;
55815;SDS011;41744;52.404;16.942;2023-08-24T09:31:04;6.13;;;1.45;;
55815;SDS011;41744;52.404;16.942;2023-08-24T09:33:30;3.65;;;1.45;;
55815;SDS011;41744;52.404;16.942;2023-08-24T09:35:56;4.43;;;1.58;;
55815;SDS011;41744;52.404;16.942;2023-08-24T09:38:26;4.22;;;1.60;;
55815;SDS011;41744;52.404;16.942;2023-08-24T09:40:56;7.28;;;1.70;;
55815;SDS011;41744;52.404;16.942;2023-08-24T09:43:22;2.95;;;1.83;;
55815;SDS011;41744;52.404;16.942;2023-08-24T09:45:52;3.58;;;1.60;;
55815;SDS011;41744;52.404;16.942;2023-08-24T09:48:18;4.55;;;1.80;;
55815;SDS011;41744;52.404;16.942;2023-08-24T09:50:45;2.75;;;1.45;;
55815;SDS011;41744;52.404;16.942;2023-08-24T09:56:15;2.58;;;1.40;;
55815;SDS011;41744;52.404;16.942;2023-08-24T09:58:41;6.20;;;1.83;;
55815;SDS011;41744;52.404;16.942;2023-08-24T10:01:08;2.65;;;1.42;;
55815;SDS011;41744;52.404;16.942;2023-08-24T10:03:34;9.00;;;1.65;;
55815;SDS011;41744;52.404;16.942;2023-08-24T10:06:05;11.45;;;1.65;;
55815;SDS011;41744;52.404;16.942;2023-08-24T10:08:36;5.68;;;2.30;;
55815;SDS011;41744;52.404;16.942;2023-08-24T10:11:02;5.25;;;1.98;;
55815;SDS011;41744;52.404;16.942;2023-08-24T10:16:32;3.55;;;1.63;;
55815;SDS011;41744;52.404;16.942;2023-08-24T10:18:59;5.90;;;1.92;;
55815;SDS011;41744;52.404;16.942;2023-08-24T10:21:25;4.05;;;1.80;;
55815;SDS011;41744;52.404;16.942;2023-08-24T10:23:53;8.30;;;2.08;;
55815;SDS011;41744;52.404;16.942;2023-08-24T10:26:20;3.63;;;1.60;;
55815;SDS011;41744;52.404;16.942;2023-08-24T10:28:47;2.92;;;1.73;;
55815;SDS011;41744;52.404;16.942;2023-08-24T10:31:15;4.43;;;1.67;;
55815;SDS011;41744;52.404;16.942;2023-08-24T10:36:47;5.05;;;1.80;;
55815;SDS011;41744;52.404;16.942;2023-08-24T10:39:14;3.53;;;2.15;;
55815;SDS011;41744;52.404;16.942;2023-08-24T10:41:52;4.20;;;1.90;;
55815;SDS011;41744;52.404;16.942;2023-08-24T10:44:25;1.92;;;1.50;;
55815;SDS011;41744;52.404;16.942;2023-08-24T10:49:32;2.78;;;1.58;;
55815;SDS011;41744;52.404;16.942;2023-08-24T10:52:07;2.72;;;1.60;;
55815;SDS011;41744;52.404;16.942;2023-08-24T10:54:42;2.60;;;1.65;;
55815;SDS011;41744;52.404;16.942;2023-08-24T10:57:10;4.50;;;1.70;;
55815;SDS011;41744;52.404;16.942;2023-08-24T10:59:43;4.15;;;1.80;;
55815;SDS011;41744;52.404;16.942;2023-08-24T11:02:17;6.13;;;2.13;;
55815;SDS011;41744;52.404;16.942;2023-08-24T11:07:29;7.38;;;1.80;;
55815;SDS011;41744;52.404;16.942;2023-08-24T11:09:55;2.08;;;1.65;;
55815;SDS011;41744;52.404;16.942;2023-08-24T11:12:21;5.40;;;2.08;;
55815;SDS011;41744;52.404;16.942;2023-08-24T11:14:50;3.22;;;1.90;;
55815;SDS011;41744;52.404;16.942;2023-08-24T11:17:20;6.80;;;1.80;;
55815;SDS011;41744;52.404;16.942;2023-08-24T11:19:50;3.60;;;2.10;;
55815;SDS011;41744;52.404;16.942;2023-08-24T11:25:19;4.20;;;1.98;;
55815;SDS011;41744;52.404;16.942;2023-08-24T11:27:45;6.85;;;2.75;;
55815;SDS011;41744;52.404;16.942;2023-08-24T11:30:11;4.10;;;1.70;;
55815;SDS011;41744;52.404;16.942;2023-08-24T11:32:37;4.18;;;1.90;;
55815;SDS011;41744;52.404;16.942;2023-08-24T11:35:04;5.60;;;2.25;;
55815;SDS011;41744;52.404;16.942;2023-08-24T11:37:30;4.15;;;1.75;;
55815;SDS011;41744;52.404;16.942;2023-08-24T11:39:56;6.75;;;1.85;;
55815;SDS011;41744;52.404;16.942;2023-08-24T11:45:32;7.57;;;1.95;;
55815;SDS011;41744;52.404;16.942;2023-08-24T11:47:59;4.40;;;2.15;;
55815;SDS011;41744;52.404;16.942;2023-08-24T11:50:29;4.00;;;2.10;;
55815;SDS011;41744;52.404;16.942;2023-08-24T11:52:55;4.10;;;2.10;;
55815;SDS011;41744;52.404;16.942;2023-08-24T11:55:25;4.03;;;1.90;;
55815;SDS011;41744;52.404;16.942;2023-08-24T11:57:51;5.07;;;2.25;;
55815;SDS011;41744;52.404;16.942;2023-08-24T12:00:18;5.10;;;1.98;;
55815;SDS011;41744;52.404;16.942;2023-08-24T12:05:48;7.22;;;1.95;;
55815;SDS011;41744;52.404;16.942;2023-08-24T12:08:14;4.57;;;2.60;;
55815;SDS011;41744;52.404;16.942;2023-08-24T12:10:43;5.22;;;2.30;;
55815;SDS011;41744;52.404;16.942;2023-08-24T12:13:09;4.72;;;2.15;;
55815;SDS011;41744;52.404;16.942;2023-08-24T12:15:35;4.15;;;2.40;;
55815;SDS011;41744;52.404;16.942;2023-08-24T12:18:08;3.33;;;1.92;;
55815;SDS011;41744;52.404;16.942;2023-08-24T12:20:35;3.70;;;2.03;;
55815;SDS011;41744;52.404;16.942;2023-08-24T12:26:04;6.95;;;2.20;;
55815;SDS011;41744;52.404;16.942;2023-08-24T12:28:32;4.57;;;2.00;;
55815;SDS011;41744;52.404;16.942;2023-08-24T12:30:59;4.32;;;2.22;;
55815;SDS011;41744;52.404;16.942;2023-08-24T12:33:29;5.22;;;2.00;;
55815;SDS011;41744;52.404;16.942;2023-08-24T12:35:56;5.35;;;2.38;;
55815;SDS011;41744;52.404;16.942;2023-08-24T12:38:23;5.40;;;2.00;;
55815;SDS011;41744;52.404;16.942;2023-08-24T12:40:49;4.00;;;1.98;;
55815;SDS011;41744;52.404;16.942;2023-08-24T12:46:19;5.43;;;2.42;;
55815;SDS011;41744;52.404;16.942;2023-08-24T12:48:45;6.68;;;2.55;;
55815;SDS011;41744;52.404;16.942;2023-08-24T12:51:11;4.35;;;2.20;;
55815;SDS011;41744;52.404;16.942;2023-08-24T12:53:37;3.53;;;2.08;;
55815;SDS011;41744;52.404;16.942;2023-08-24T12:56:03;3.13;;;2.30;;
55815;SDS011;41744;52.404;16.942;2023-08-24T12:58:30;3.10;;;2.33;;
55815;SDS011;41744;52.404;16.942;2023-08-24T13:00:56;4.18;;;2.40;;
55815;SDS011;41744;52.404;16.942;2023-08-24T13:03:22;2.67;;;2.10;;
55815;SDS011;41744;52.404;16.942;2023-08-24T13:05:48;5.75;;;2.30;;
55815;SDS011;41744;52.404;16.942;2023-08-24T13:08:14;6.72;;;2.08;;
55815;SDS011;41744;52.404;16.942;2023-08-24T13:10:40;10.25;;;2.50;;
55815;SDS011;41744;52.404;16.942;2023-08-24T13:16:10;5.18;;;2.22;;
55815;SDS011;41744;52.404;16.942;2023-08-24T13:18:36;6.30;;;2.70;;
55815;SDS011;41744;52.404;16.942;2023-08-24T13:21:02;3.88;;;2.58;;
55815;SDS011;41744;52.404;16.942;2023-08-24T13:23:28;3.53;;;2.40;;
55815;SDS011;41744;52.404;16.942;2023-08-24T13:25:57;6.30;;;2.67;;
55815;SDS011;41744;52.404;16.942;2023-08-24T13:28:23;5.68;;;3.13;;
55815;SDS011;41744;52.404;16.942;2023-08-24T13:30:49;3.60;;;2.38;;
55815;SDS011;41744;52.404;16.942;2023-08-24T13:33:15;3.95;;;2.72;;
55815;SDS011;41744;52.404;16.942;2023-08-24T13:35:42;5.60;;;2.42;;
55815;SDS011;41744;52.404;16.942;2023-08-24T13:38:08;7.75;;;2.63;;
55815;SDS011;41744;52.404;16.942;2023-08-24T13:40:34;6.03;;;3.05;;
55815;SDS011;41744;52.404;16.942;2023-08-24T13:46:04;5.25;;;2.63;;
55815;SDS011;41744;52.404;16.942;2023-08-24T13:48:30;5.07;;;2.20;;
55815;SDS011;41744;52.404;16.942;2023-08-24T13:50:58;3.10;;;2.25;;
55815;SDS011;41744;52.404;16.942;2023-08-24T13:53:24;4.63;;;2.72;;
55815;SDS011;41744;52.404;16.942;2023-08-24T13:55:50;5.53;;;2.50;;
55815;SDS011;41744;52.404;16.942;2023-08-24T13:58:17;7.07;;;2.30;;
55815;SDS011;41744;52.404;16.942;2023-08-24T14:00:43;7.95;;;2.70;;
55815;SDS011;41744;52.404;16.942;2023-08-24T14:03:09;5.93;;;3.03;;
55815;SDS011;41744;52.404;16.942;2023-08-24T14:05:39;4.85;;;2.60;;
55815;SDS011;41744;52.404;16.942;2023-08-24T14:08:05;4.82;;;2.40;;
55815;SDS011;41744;52.404;16.942;2023-08-24T14:10:33;7.10;;;2.85;;
55815;SDS011;41744;52.404;16.942;2023-08-24T14:16:02;7.18;;;2.75;;
55815;SDS011;41744;52.404;16.942;2023-08-24T14:18:29;9.15;;;2.97;;
55815;SDS011;41744;52.404;16.942;2023-08-24T14:20:55;13.95;;;2.63;;
55815;SDS011;41744;52.404;16.942;2023-08-24T14:23:21;3.80;;;2.30;;
55815;SDS011;41744;52.404;16.942;2023-08-24T14:25:47;6.45;;;2.50;;
55815;SDS011;41744;52.404;16.942;2023-08-24T14:28:14;7.60;;;2.78;;
55815;SDS011;41744;52.404;16.942;2023-08-24T14:30:40;6.60;;;2.50;;
55815;SDS011;41744;52.404;16.942;2023-08-24T14:36:16;3.38;;;2.40;;
55815;SDS011;41744;52.404;16.942;2023-08-24T14:38:43;5.50;;;2.30;;
55815;SDS011;41744;52.404;16.942;2023-08-24T14:41:09;5.57;;;2.58;;
55815;SDS011;41744;52.404;16.942;2023-08-24T14:43:36;5.18;;;2.20;;
55815;SDS011;41744;52.404;16.942;2023-08-24T14:46:02;2.92;;;2.08;;
55815;SDS011;41744;52.404;16.942;2023-08-24T14:48:28;3.33;;;2.00;;
55815;SDS011;41744;52.404;16.942;2023-08-24T14:50:54;5.88;;;2.08;;
55815;SDS011;41744;52.404;16.942;2023-08-24T14:56:24;4.28;;;2.50;;
55815;SDS011;41744;52.404;16.942;2023-08-24T14:58:50;4.68;;;2.88;;
55815;SDS011;41744;52.404;16.942;2023-08-24T15:01:16;5.40;;;2.40;;
55815;SDS011;41744;52.404;16.942;2023-08-24T15:06:53;4.53;;;2.30;;
55815;SDS011;41744;52.404;16.942;2023-08-24T15:09:19;3.28;;;2.15;;
55815;SDS011;41744;52.404;16.942;2023-08-24T15:11:45;3.58;;;2.20;;
55815;SDS011;41744;52.404;16.942;2023-08-24T15:17:15;3.40;;;1.98;;
55815;SDS011;41744;52.404;16.942;2023-08-24T15:19:41;7.53;;;2.25;;
55815;SDS011;41744;52.404;16.942;2023-08-24T15:22:07;3.95;;;2.17;;
55815;SDS011;41744;52.404;16.942;2023-08-24T15:24:33;4.38;;;2.40;;
55815;SDS011;41744;52.404;16.942;2023-08-24T15:26:59;6.32;;;2.17;;
55815;SDS011;41744;52.404;16.942;2023-08-24T15:29:25;4.35;;;2.88;;
55815;SDS011;41744;52.404;16.942;2023-08-24T15:31:51;5.18;;;2.50;;
55815;SDS011;41744;52.404;16.942;2023-08-24T15:34:17;6.15;;;2.83;;
55815;SDS011;41744;52.404;16.942;2023-08-24T15:36:43;4.25;;;2.65;;
55815;SDS011;41744;52.404;16.942;2023-08-24T15:39:09;4.38;;;2.35;;
55815;SDS011;41744;52.404;16.942;2023-08-24T15:41:37;5.68;;;2.70;;
55815;SDS011;41744;52.404;16.942;2023-08-24T15:47:06;4.88;;;2.53;;
55815;SDS011;41744;52.404;16.942;2023-08-24T15:49:32;5.13;;;2.63;;
55815;SDS011;41744;52.404;16.942;2023-08-24T15:51:59;5.07;;;2.38;;
55815;SDS011;41744;52.404;16.942;2023-08-24T15:54:25;6.22;;;2.45;;
55815;SDS011;41744;52.404;16.942;2023-08-24T15:56:51;3.40;;;2.40;;
55815;SDS011;41744;52.404;16.942;2023-08-24T15:59:19;5.32;;;2.40;;
55815;SDS011;41744;52.404;16.942;2023-08-24T16:01:45;4.97;;;2.40;;
55815;SDS011;41744;52.404;16.942;2023-08-24T16:04:12;7.70;;;2.80;;
55815;SDS011;41744;52.404;16.942;2023-08-24T16:06:38;6.22;;;2.50;;
55815;SDS011;41744;52.404;16.942;2023-08-24T16:09:05;4.22;;;2.38;;
55815;SDS011;41744;52.404;16.942;2023-08-24T16:11:31;6.15;;;2.83;;
55815;SDS011;41744;52.404;16.942;2023-08-24T16:17:00;4.82;;;2.50;;
55815;SDS011;41744;52.404;16.942;2023-08-24T16:19:26;3.55;;;2.25;;
55815;SDS011;41744;52.404;16.942;2023-08-24T16:21:52;4.15;;;2.40;;
55815;SDS011;41744;52.404;16.942;2023-08-24T16:24:18;5.57;;;2.40;;
55815;SDS011;41744;52.404;16.942;2023-08-24T16:26:44;3.25;;;2.40;;
55815;SDS011;41744;52.404;16.942;2023-08-24T16:29:10;4.32;;;2.13;;
55815;SDS011;41744;52.404;16.942;2023-08-24T16:31:36;5.13;;;2.67;;
55815;SDS011;41744;52.404;16.942;2023-08-24T16:34:03;12.27;;;7.43;;
55815;SDS011;41744;52.404;16.942;2023-08-24T16:36:29;20.27;;;11.55;;
55815;SDS011;41744;52.404;16.942;2023-08-24T16:38:55;9.77;;;4.72;;
55815;SDS011;41744;52.404;16.942;2023-08-24T16:41:21;9.27;;;5.72;;
55815;SDS011;41744;52.404;16.942;2023-08-24T16:46:51;4.20;;;2.60;;